createdAt,value
2022-12-31T00:00:42.962Z,13.45
2022-12-31T00:03:09.281Z,13.36
2022-12-31T00:05:35.472Z,13.00
2022-12-31T00:08:01.692Z,13.16
2022-12-31T00:10:27.958Z,13.05
2022-12-31T00:12:54.096Z,13.04
2022-12-31T00:15:20.268Z,12.97
2022-12-31T00:17:46.423Z,12.88
2022-12-31T00:20:12.600Z,12.85
2022-12-31T00:22:38.807Z,12.82
2022-12-31T00:25:04.934Z,12.83
2022-12-31T00:27:31.122Z,12.82
2022-12-31T00:30:04.123Z,12.78
2022-12-31T00:32:30.781Z,12.78
2022-12-31T00:34:56.936Z,12.74
2022-12-31T00:37:23.154Z,12.81
2022-12-31T00:39:49.299Z,12.74
2022-12-31T00:42:15.505Z,12.75
2022-12-31T00:44:41.667Z,12.75
2022-12-31T00:47:07.831Z,12.74
2022-12-31T00:49:33.969Z,12.68
2022-12-31T00:52:00.160Z,12.74
2022-12-31T00:54:26.273Z,12.81
2022-12-31T00:56:52.454Z,12.86
2022-12-31T00:59:18.667Z,12.88
2022-12-31T01:01:44.909Z,12.86
2022-12-31T01:04:11.157Z,12.91
2022-12-31T01:06:37.391Z,12.95
2022-12-31T01:09:03.568Z,13.01
2022-12-31T01:11:29.778Z,13.01
2022-12-31T01:13:55.952Z,13.09
2022-12-31T01:16:22.108Z,13.00
2022-12-31T01:18:48.581Z,13.17
2022-12-31T01:21:14.775Z,13.21
2022-12-31T01:23:40.955Z,13.24
2022-12-31T01:26:07.078Z,13.26
2022-12-31T01:28:33.285Z,13.30
2022-12-31T01:30:59.496Z,13.28
2022-12-31T01:33:25.736Z,13.26
2022-12-31T01:35:51.861Z,13.25
2022-12-31T01:38:19.076Z,13.31
2022-12-31T01:40:45.210Z,13.42
2022-12-31T01:43:11.369Z,13.44
2022-12-31T01:45:37.552Z,13.53
2022-12-31T01:48:03.679Z,13.48
2022-12-31T01:50:29.886Z,13.54
2022-12-31T01:52:56.019Z,13.62
2022-12-31T01:55:22.192Z,13.70
2022-12-31T01:57:48.331Z,13.78
2022-12-31T02:00:14.483Z,13.79
2022-12-31T02:02:40.775Z,13.78
2022-12-31T02:05:07.044Z,13.80
2022-12-31T02:07:33.175Z,13.88
2022-12-31T02:09:59.385Z,13.87
2022-12-31T02:12:25.588Z,13.91
2022-12-31T02:14:51.789Z,14.10
2022-12-31T02:17:17.999Z,14.06
2022-12-31T02:19:44.173Z,14.04
2022-12-31T02:22:10.379Z,14.03
2022-12-31T02:24:36.544Z,13.96
2022-12-31T02:27:02.715Z,13.93
2022-12-31T02:29:28.888Z,13.89
2022-12-31T02:31:55.048Z,13.99
2022-12-31T02:34:21.227Z,13.97
2022-12-31T02:36:47.392Z,14.00
2022-12-31T02:39:13.507Z,14.10
2022-12-31T02:41:39.673Z,14.19
2022-12-31T02:44:05.835Z,14.17
2022-12-31T02:46:32.129Z,14.36
2022-12-31T02:48:58.314Z,14.43
2022-12-31T02:51:24.474Z,14.49
2022-12-31T02:53:50.632Z,14.54
2022-12-31T02:56:16.805Z,14.52
2022-12-31T02:58:43.036Z,14.55
2022-12-31T03:01:09.295Z,14.61
2022-12-31T03:03:35.474Z,14.60
2022-12-31T03:06:01.640Z,14.59
2022-12-31T03:08:27.823Z,14.46
2022-12-31T03:10:53.946Z,14.40
2022-12-31T03:13:20.096Z,14.48
2022-12-31T03:15:46.234Z,14.47
2022-12-31T03:18:12.458Z,14.38
2022-12-31T03:20:38.623Z,14.28
2022-12-31T03:23:04.793Z,14.28
2022-12-31T03:25:30.922Z,14.22
2022-12-31T03:27:57.115Z,14.25
2022-12-31T03:30:23.308Z,14.29
2022-12-31T03:32:49.497Z,14.28
2022-12-31T03:35:17.125Z,14.24
2022-12-31T03:37:43.251Z,14.30
2022-12-31T03:40:09.404Z,14.24
2022-12-31T03:42:35.550Z,14.24
2022-12-31T03:45:01.753Z,14.28
2022-12-31T03:47:27.888Z,14.32
2022-12-31T03:49:54.073Z,14.30
2022-12-31T03:52:20.280Z,14.26
2022-12-31T03:54:46.470Z,14.25
2022-12-31T03:57:12.635Z,14.31
2022-12-31T03:59:40.191Z,14.47
2022-12-31T04:02:06.460Z,14.48
2022-12-31T04:04:32.700Z,14.47
2022-12-31T04:06:58.812Z,14.46
2022-12-31T04:09:25.000Z,14.39
2022-12-31T04:11:51.191Z,14.37
2022-12-31T04:14:17.353Z,14.45
2022-12-31T04:16:43.548Z,14.38
2022-12-31T04:19:09.803Z,14.41
2022-12-31T04:21:35.926Z,14.45
2022-12-31T04:24:02.072Z,14.41
2022-12-31T04:26:28.205Z,14.52
2022-12-31T04:28:54.352Z,14.52
2022-12-31T04:31:20.534Z,14.54
2022-12-31T04:33:46.723Z,14.56
2022-12-31T04:36:12.855Z,14.65
2022-12-31T04:38:39.021Z,14.62
2022-12-31T04:41:05.170Z,14.65
2022-12-31T04:43:31.295Z,14.62
2022-12-31T04:45:57.540Z,14.56
2022-12-31T04:48:23.754Z,14.62
2022-12-31T04:50:49.912Z,14.52
2022-12-31T04:53:16.104Z,14.58
2022-12-31T04:55:42.241Z,14.58
2022-12-31T04:58:08.441Z,14.63
2022-12-31T05:00:34.644Z,14.61
2022-12-31T05:03:00.881Z,14.66
2022-12-31T05:05:27.121Z,14.67
2022-12-31T05:07:53.298Z,14.67
2022-12-31T05:10:19.513Z,14.76
2022-12-31T05:12:45.668Z,14.79
2022-12-31T05:15:11.808Z,14.74
2022-12-31T05:17:38.008Z,14.80
2022-12-31T05:20:04.132Z,14.88
2022-12-31T05:22:30.356Z,14.92
2022-12-31T05:24:56.501Z,14.93
2022-12-31T05:27:22.687Z,14.96
2022-12-31T05:29:48.857Z,15.00
2022-12-31T05:32:14.986Z,15.05
2022-12-31T05:34:41.182Z,15.07
2022-12-31T05:37:09.285Z,15.10
2022-12-31T05:39:35.400Z,15.03
2022-12-31T05:42:01.593Z,15.22
2022-12-31T05:44:27.750Z,15.28
2022-12-31T05:46:53.882Z,15.32
2022-12-31T05:49:20.071Z,15.27
2022-12-31T05:51:46.246Z,15.40
2022-12-31T05:54:12.426Z,15.46
2022-12-31T05:56:38.598Z,15.49
2022-12-31T05:59:04.789Z,15.41
2022-12-31T06:01:31.874Z,15.40
2022-12-31T06:03:58.194Z,15.42
2022-12-31T06:06:24.341Z,15.43
2022-12-31T06:08:50.532Z,15.52
2022-12-31T06:11:16.687Z,15.54
2022-12-31T06:13:42.824Z,15.49
2022-12-31T06:16:09.091Z,15.52
2022-12-31T06:18:35.389Z,15.45
2022-12-31T06:21:01.569Z,15.45
2022-12-31T06:23:27.809Z,15.44
2022-12-31T06:25:53.943Z,15.42
2022-12-31T06:28:20.689Z,15.46
2022-12-31T06:30:47.033Z,15.59
2022-12-31T06:33:13.418Z,15.53
2022-12-31T06:35:39.560Z,15.52
2022-12-31T06:38:05.739Z,15.64
2022-12-31T06:40:31.927Z,15.52
2022-12-31T06:43:00.357Z,15.64
2022-12-31T06:45:26.723Z,15.68
2022-12-31T06:47:52.842Z,15.75
2022-12-31T06:50:19.053Z,15.79
2022-12-31T06:52:45.177Z,15.73
2022-12-31T06:55:11.350Z,15.63
2022-12-31T06:57:37.566Z,15.57
2022-12-31T07:00:03.743Z,15.42
2022-12-31T07:02:30.034Z,15.28
2022-12-31T07:04:56.238Z,15.24
2022-12-31T07:07:22.397Z,15.08
2022-12-31T07:09:48.523Z,15.03
2022-12-31T07:12:14.651Z,15.15
2022-12-31T07:14:40.829Z,15.08
2022-12-31T07:17:06.998Z,15.09
2022-12-31T07:19:33.182Z,15.09
2022-12-31T07:21:59.323Z,15.12
2022-12-31T07:24:25.483Z,15.02
2022-12-31T07:26:56.517Z,14.87
2022-12-31T07:29:23.247Z,14.83
2022-12-31T07:31:49.392Z,14.84
2022-12-31T07:34:15.571Z,14.96
2022-12-31T07:36:41.795Z,14.93
2022-12-31T07:39:07.957Z,15.06
2022-12-31T07:41:34.171Z,15.03
2022-12-31T07:44:00.301Z,15.07
2022-12-31T07:46:26.623Z,15.00
2022-12-31T07:48:53.162Z,15.11
2022-12-31T07:51:19.403Z,15.13
2022-12-31T07:53:45.572Z,15.17
2022-12-31T07:56:11.788Z,15.12
2022-12-31T07:58:38.005Z,15.19
2022-12-31T08:01:04.314Z,15.23
2022-12-31T08:03:30.542Z,15.30
2022-12-31T08:05:56.705Z,15.38
2022-12-31T08:08:22.911Z,15.54
2022-12-31T08:10:49.030Z,15.54
2022-12-31T08:13:15.158Z,15.53
2022-12-31T08:15:41.366Z,15.52
2022-12-31T08:18:07.553Z,15.46
2022-12-31T08:20:33.691Z,15.48
2022-12-31T08:22:59.899Z,15.53
2022-12-31T08:25:26.032Z,15.50
2022-12-31T08:27:52.200Z,15.54
2022-12-31T08:30:18.352Z,15.58
2022-12-31T08:32:44.527Z,15.58
2022-12-31T08:35:10.740Z,15.54
2022-12-31T08:37:36.922Z,15.56
2022-12-31T08:40:03.059Z,15.56
2022-12-31T08:42:29.230Z,15.54
2022-12-31T08:44:55.389Z,15.64
2022-12-31T08:47:21.531Z,15.60
2022-12-31T08:49:47.695Z,15.71
2022-12-31T08:52:13.858Z,15.69
2022-12-31T08:54:40.057Z,15.71
2022-12-31T08:57:06.284Z,15.81
2022-12-31T08:59:32.435Z,15.89
2022-12-31T09:01:58.663Z,15.94
2022-12-31T09:04:24.986Z,15.95
2022-12-31T09:06:51.274Z,16.01
2022-12-31T09:09:17.500Z,16.06
2022-12-31T09:11:43.689Z,16.00
2022-12-31T09:14:09.879Z,15.96
2022-12-31T09:16:36.060Z,16.05
2022-12-31T09:19:02.216Z,16.04
2022-12-31T09:21:28.359Z,16.20
2022-12-31T09:23:54.501Z,16.28
2022-12-31T09:26:22.730Z,16.17
2022-12-31T09:28:48.914Z,16.29
2022-12-31T09:31:15.139Z,16.25
2022-12-31T09:33:41.351Z,16.40
2022-12-31T09:36:07.472Z,16.56
2022-12-31T09:38:33.612Z,16.79
2022-12-31T09:40:59.779Z,17.06
2022-12-31T09:43:25.936Z,17.53
2022-12-31T09:45:52.155Z,17.90
2022-12-31T09:48:18.369Z,17.76
2022-12-31T09:50:44.510Z,17.65
2022-12-31T09:53:10.666Z,17.30
2022-12-31T09:55:36.859Z,17.27
2022-12-31T09:58:03.052Z,17.25
2022-12-31T10:00:29.197Z,17.46
2022-12-31T10:02:55.395Z,17.74
2022-12-31T10:05:21.558Z,17.76
2022-12-31T10:07:52.453Z,17.98
2022-12-31T10:10:19.855Z,17.97
2022-12-31T10:12:46.064Z,17.96
2022-12-31T10:15:12.287Z,18.11
2022-12-31T10:17:38.469Z,18.58
2022-12-31T10:20:04.633Z,18.65
2022-12-31T10:22:30.789Z,18.97
2022-12-31T10:24:56.935Z,19.23
2022-12-31T10:27:23.179Z,19.55
2022-12-31T10:29:49.316Z,19.99
2022-12-31T10:32:15.450Z,19.91
2022-12-31T10:34:41.613Z,19.42
2022-12-31T10:37:07.743Z,19.25
2022-12-31T10:39:33.911Z,19.27
2022-12-31T10:42:00.101Z,19.21
2022-12-31T10:44:26.250Z,19.22
2022-12-31T10:46:52.494Z,19.44
2022-12-31T10:49:18.641Z,19.73
2022-12-31T10:51:44.765Z,19.76
2022-12-31T10:54:10.906Z,20.11
2022-12-31T10:56:37.064Z,20.12
2022-12-31T10:59:03.218Z,19.90
2022-12-31T11:01:29.408Z,19.89
2022-12-31T11:03:55.605Z,20.03
2022-12-31T11:06:21.771Z,19.98
2022-12-31T11:08:47.989Z,19.97
2022-12-31T11:11:14.156Z,20.33
2022-12-31T11:13:40.291Z,20.36
2022-12-31T11:16:06.469Z,20.80
2022-12-31T11:18:32.688Z,21.60
2022-12-31T11:20:58.874Z,21.36
2022-12-31T11:23:25.053Z,21.29
2022-12-31T11:25:51.216Z,21.06
2022-12-31T11:28:17.343Z,20.97
2022-12-31T11:30:43.506Z,20.75
2022-12-31T11:33:09.745Z,20.29
2022-12-31T11:35:35.953Z,20.16
2022-12-31T11:38:02.105Z,20.20
2022-12-31T11:40:28.294Z,20.20
2022-12-31T11:42:54.496Z,19.97
2022-12-31T11:45:20.681Z,19.84
2022-12-31T11:48:28.049Z,20.02
2022-12-31T11:50:33.031Z,19.90
2022-12-31T11:52:59.215Z,19.70
2022-12-31T11:55:25.363Z,19.58
2022-12-31T11:57:51.540Z,19.62
2022-12-31T12:00:17.696Z,19.53
2022-12-31T12:02:43.836Z,19.57
2022-12-31T12:05:11.369Z,19.56
2022-12-31T12:07:37.780Z,19.48
2022-12-31T12:10:03.937Z,19.36
2022-12-31T12:12:30.087Z,19.30
2022-12-31T12:14:56.322Z,19.41
2022-12-31T12:17:22.475Z,19.27
2022-12-31T12:19:48.622Z,19.26
2022-12-31T12:22:14.781Z,19.27
2022-12-31T12:24:40.978Z,19.26
2022-12-31T12:27:07.151Z,19.26
2022-12-31T12:29:33.366Z,19.16
2022-12-31T12:31:59.565Z,19.17
2022-12-31T12:34:25.731Z,19.18
2022-12-31T12:36:51.918Z,19.33
2022-12-31T12:39:18.039Z,19.29
2022-12-31T12:41:44.227Z,19.26
2022-12-31T12:44:10.364Z,19.23
2022-12-31T12:46:36.527Z,19.22
2022-12-31T12:49:02.713Z,19.26
2022-12-31T12:51:28.850Z,19.24
2022-12-31T12:53:55.050Z,19.34
2022-12-31T12:56:21.179Z,19.31
2022-12-31T12:58:47.361Z,19.21
2022-12-31T13:01:13.670Z,19.13
2022-12-31T13:03:53.976Z,19.16
2022-12-31T13:06:25.972Z,19.02
2022-12-31T13:08:52.150Z,19.13
2022-12-31T13:11:18.428Z,19.11
2022-12-31T13:13:44.576Z,19.02
2022-12-31T13:16:10.813Z,18.93
2022-12-31T13:18:37.003Z,19.00
2022-12-31T13:21:03.156Z,18.99
2022-12-31T13:23:30.144Z,18.92
2022-12-31T13:25:58.640Z,18.81
2022-12-31T13:28:24.817Z,18.86
2022-12-31T13:30:51.070Z,18.79
2022-12-31T13:33:17.269Z,18.72
2022-12-31T13:35:43.405Z,18.75
2022-12-31T13:38:09.558Z,18.74
2022-12-31T13:40:35.696Z,18.67
2022-12-31T13:43:01.903Z,18.68
2022-12-31T13:45:28.057Z,18.66
2022-12-31T13:47:54.219Z,18.61
2022-12-31T13:50:20.403Z,18.55
2022-12-31T13:52:46.561Z,18.51
2022-12-31T13:55:12.727Z,18.45
2022-12-31T13:57:38.899Z,18.34
2022-12-31T14:00:05.111Z,18.33
2022-12-31T14:02:31.440Z,18.35
2022-12-31T14:04:57.703Z,18.37
2022-12-31T14:07:26.715Z,18.36
2022-12-31T14:09:56.940Z,18.31
2022-12-31T14:12:23.189Z,18.22
2022-12-31T14:14:49.481Z,18.14
2022-12-31T14:17:15.633Z,18.14
2022-12-31T14:19:41.781Z,18.01
2022-12-31T14:22:08.028Z,18.02
2022-12-31T14:24:34.254Z,18.04
2022-12-31T14:27:00.389Z,18.09
2022-12-31T14:29:26.567Z,18.04
2022-12-31T14:31:52.793Z,18.01
2022-12-31T14:34:19.004Z,17.93
2022-12-31T14:36:45.204Z,17.88
2022-12-31T14:39:11.377Z,17.83
2022-12-31T14:41:37.561Z,17.76
2022-12-31T14:44:03.762Z,17.71
2022-12-31T14:46:29.919Z,17.72
2022-12-31T14:48:56.115Z,17.76
2022-12-31T14:51:22.315Z,17.62
2022-12-31T14:53:48.515Z,17.51
2022-12-31T14:56:14.732Z,17.50
2022-12-31T14:58:40.850Z,17.42
2022-12-31T15:01:07.176Z,17.27
2022-12-31T15:03:33.371Z,17.21
2022-12-31T15:05:59.494Z,17.17
2022-12-31T15:08:25.711Z,17.20
2022-12-31T15:10:51.874Z,17.05
2022-12-31T15:13:18.040Z,16.99
2022-12-31T15:15:44.219Z,17.11
2022-12-31T15:18:10.415Z,16.98
2022-12-31T15:20:36.592Z,16.94
2022-12-31T15:23:02.773Z,16.86
2022-12-31T15:25:28.953Z,16.86
2022-12-31T15:27:55.081Z,16.71
2022-12-31T15:30:21.378Z,16.73
2022-12-31T15:32:47.558Z,16.57
2022-12-31T15:35:13.694Z,16.35
2022-12-31T15:37:39.879Z,16.09
2022-12-31T15:40:06.053Z,15.93
2022-12-31T15:42:42.427Z,15.77
2022-12-31T15:45:12.004Z,15.54
2022-12-31T15:47:38.204Z,15.31
2022-12-31T15:50:04.364Z,15.09
2022-12-31T15:52:30.536Z,14.92
2022-12-31T15:54:56.705Z,14.82
2022-12-31T15:57:22.933Z,14.71
2022-12-31T15:59:49.183Z,14.68
2022-12-31T16:02:15.424Z,14.72
2022-12-31T16:04:41.773Z,14.70
2022-12-31T16:07:07.942Z,14.66
2022-12-31T16:09:34.116Z,14.66
2022-12-31T16:12:00.352Z,14.71
2022-12-31T16:14:26.569Z,14.79
2022-12-31T16:16:52.756Z,14.79
2022-12-31T16:19:18.877Z,14.76
2022-12-31T16:21:45.025Z,14.83
2022-12-31T16:24:11.196Z,14.94
2022-12-31T16:26:37.365Z,14.85
2022-12-31T16:29:03.578Z,14.95
2022-12-31T16:31:29.778Z,14.91
2022-12-31T16:33:55.966Z,14.92
2022-12-31T16:36:22.143Z,15.04
2022-12-31T16:38:48.347Z,14.96
2022-12-31T16:41:14.507Z,15.04
2022-12-31T16:43:40.687Z,15.09
2022-12-31T16:46:06.889Z,15.04
2022-12-31T16:48:33.125Z,15.05
2022-12-31T16:50:59.320Z,15.19
2022-12-31T16:53:25.527Z,15.25
2022-12-31T16:55:51.740Z,15.18
2022-12-31T16:58:17.898Z,15.07
2022-12-31T17:00:44.066Z,15.01
2022-12-31T17:03:10.291Z,15.02
2022-12-31T17:05:36.490Z,14.97
2022-12-31T17:08:02.662Z,14.90
2022-12-31T17:10:28.775Z,14.76
2022-12-31T17:15:41.389Z,14.80
2022-12-31T17:18:07.684Z,14.75
2022-12-31T17:20:33.826Z,14.60
2022-12-31T17:22:59.995Z,14.50
2022-12-31T17:25:26.189Z,14.72
2022-12-31T17:27:52.318Z,14.77
2022-12-31T17:30:18.484Z,14.68
2022-12-31T17:32:44.661Z,14.56
2022-12-31T17:35:10.860Z,14.57
2022-12-31T17:37:37.032Z,14.58
2022-12-31T17:40:32.273Z,14.75
2022-12-31T17:42:49.291Z,14.75
2022-12-31T17:45:15.428Z,14.85
2022-12-31T17:47:41.619Z,15.08
2022-12-31T17:50:07.761Z,15.06
2022-12-31T17:52:33.888Z,15.12
2022-12-31T17:55:00.056Z,15.10
2022-12-31T17:57:26.252Z,15.03
2022-12-31T17:59:52.553Z,15.09
2022-12-31T18:02:18.845Z,15.23
2022-12-31T18:04:45.019Z,15.24
2022-12-31T18:07:11.200Z,15.35
2022-12-31T18:09:37.363Z,15.37
2022-12-31T18:12:03.559Z,15.56
2022-12-31T18:14:29.692Z,15.54
2022-12-31T18:16:55.887Z,15.62
2022-12-31T18:19:54.188Z,15.84
2022-12-31T18:22:08.211Z,15.96
2022-12-31T18:24:34.411Z,15.94
2022-12-31T18:27:00.556Z,16.07
2022-12-31T18:29:26.748Z,16.18
2022-12-31T18:31:53.107Z,16.21
2022-12-31T18:34:19.251Z,16.04
2022-12-31T18:36:45.416Z,15.94
2022-12-31T18:39:11.608Z,15.80
2022-12-31T18:41:37.765Z,15.72
2022-12-31T18:44:04.013Z,15.70
2022-12-31T18:46:30.302Z,15.65
2022-12-31T18:48:56.467Z,15.67
2022-12-31T18:51:29.267Z,15.59
2022-12-31T18:53:57.380Z,15.65
2022-12-31T18:56:23.554Z,15.59
2022-12-31T18:58:49.707Z,15.59
2022-12-31T19:01:15.974Z,15.43
2022-12-31T19:03:42.239Z,15.43
2022-12-31T19:06:08.391Z,15.35
2022-12-31T19:08:34.573Z,15.49
2022-12-31T19:11:00.734Z,15.40
2022-12-31T19:13:26.877Z,15.29
2022-12-31T19:15:53.049Z,15.09
2022-12-31T19:18:19.258Z,15.09
2022-12-31T19:20:45.392Z,14.98
2022-12-31T19:23:11.517Z,14.87
2022-12-31T19:25:37.653Z,14.67
2022-12-31T19:28:03.832Z,14.50
2022-12-31T19:30:30.075Z,14.33
2022-12-31T19:32:56.221Z,14.16
2022-12-31T19:35:22.338Z,14.17
2022-12-31T19:37:48.530Z,14.27
2022-12-31T19:40:14.686Z,14.32
2022-12-31T19:42:40.833Z,14.23
2022-12-31T19:45:06.984Z,14.11
2022-12-31T19:47:33.215Z,14.11
2022-12-31T19:50:00.456Z,14.27
2022-12-31T19:52:26.639Z,14.30
2022-12-31T19:54:55.174Z,14.36
2022-12-31T19:57:21.372Z,14.42
2022-12-31T19:59:47.504Z,14.40
2022-12-31T20:02:13.793Z,14.43
2022-12-31T20:04:40.131Z,14.45
2022-12-31T20:07:06.270Z,14.43
2022-12-31T20:09:32.494Z,14.37
2022-12-31T20:11:58.682Z,14.42
2022-12-31T20:14:24.858Z,14.37
2022-12-31T20:16:51.075Z,14.43
2022-12-31T20:19:17.277Z,14.46
2022-12-31T20:21:43.441Z,14.46
2022-12-31T20:24:09.628Z,14.40
2022-12-31T20:26:35.808Z,14.24
2022-12-31T20:29:01.994Z,14.19
2022-12-31T20:31:28.125Z,14.03
2022-12-31T20:33:54.373Z,13.92
2022-12-31T20:36:20.587Z,13.97
2022-12-31T20:38:46.746Z,14.04
2022-12-31T20:41:12.911Z,14.07
2022-12-31T20:43:39.054Z,14.06
2022-12-31T20:46:09.342Z,14.06
2022-12-31T20:48:38.745Z,14.01
2022-12-31T20:51:04.888Z,13.94
2022-12-31T20:53:31.042Z,13.93
2022-12-31T20:55:57.187Z,13.81
2022-12-31T20:58:23.377Z,13.77
2022-12-31T21:00:49.499Z,13.71
2022-12-31T21:03:53.827Z,13.76
2022-12-31T21:06:03.176Z,13.65
2022-12-31T21:08:34.595Z,13.68
2022-12-31T21:11:01.257Z,13.55
2022-12-31T21:13:27.447Z,13.58
2022-12-31T21:15:53.617Z,13.44
2022-12-31T21:18:19.844Z,13.35
2022-12-31T21:20:46.086Z,13.26
2022-12-31T21:23:12.279Z,13.18
2022-12-31T21:25:38.496Z,13.08
2022-12-31T21:28:04.615Z,13.00
2022-12-31T21:30:30.826Z,12.85
2022-12-31T21:32:57.015Z,12.81
2022-12-31T21:38:09.276Z,12.74
2022-12-31T21:40:35.453Z,12.60
2022-12-31T21:43:01.582Z,12.56
2022-12-31T21:45:27.765Z,12.66
2022-12-31T21:47:54.000Z,12.63
2022-12-31T21:50:20.157Z,12.79
2022-12-31T21:52:46.356Z,12.77
2022-12-31T21:55:12.518Z,12.84
2022-12-31T21:58:07.237Z,12.79
2022-12-31T22:00:41.861Z,12.89
2022-12-31T22:03:09.103Z,12.80
2022-12-31T22:05:35.414Z,13.01
2022-12-31T22:08:01.541Z,13.01
2022-12-31T22:10:27.747Z,13.12
2022-12-31T22:12:54.028Z,13.27
2022-12-31T22:15:20.212Z,13.33
2022-12-31T22:17:46.389Z,13.30
2022-12-31T22:20:28.682Z,13.36
2022-12-31T22:22:55.177Z,13.28
2022-12-31T22:25:21.372Z,13.50
2022-12-31T22:28:11.462Z,13.50
2022-12-31T22:30:33.893Z,13.62
2022-12-31T22:33:00.087Z,13.55
2022-12-31T22:35:26.303Z,13.75
2022-12-31T22:37:57.963Z,13.78
2022-12-31T22:40:26.540Z,13.71
2022-12-31T22:42:52.701Z,13.75
2022-12-31T22:45:18.962Z,13.90
2022-12-31T22:47:45.215Z,13.85
2022-12-31T22:50:11.347Z,13.83
2022-12-31T22:52:37.497Z,13.82
2022-12-31T22:55:03.654Z,13.94
2022-12-31T22:57:29.785Z,13.82
2022-12-31T22:59:55.966Z,13.71
2022-12-31T23:02:22.188Z,13.75
2022-12-31T23:04:48.366Z,13.65
2022-12-31T23:07:14.552Z,13.64
2022-12-31T23:09:40.705Z,13.52
2022-12-31T23:12:06.834Z,13.63
2022-12-31T23:14:33.079Z,13.43
2022-12-31T23:16:59.441Z,13.39
2022-12-31T23:19:45.607Z,13.27
2022-12-31T23:22:11.821Z,13.33
2022-12-31T23:24:38.007Z,13.39
2022-12-31T23:27:04.183Z,13.39
2022-12-31T23:29:30.384Z,13.26
2022-12-31T23:31:56.568Z,13.25
2022-12-31T23:34:22.737Z,13.34
2022-12-31T23:36:48.917Z,13.31
2022-12-31T23:39:15.078Z,13.54
2022-12-31T23:41:41.225Z,13.76
2022-12-31T23:44:07.360Z,13.82
2022-12-31T23:46:33.586Z,13.82
2022-12-31T23:48:59.789Z,13.89
2022-12-31T23:51:25.960Z,13.98
2022-12-31T23:53:52.195Z,14.15
2022-12-31T23:56:23.299Z,14.36
2022-12-31T23:58:50.291Z,14.57
